createdAt,value
2018-07-06T00:00:04.424Z,13.10
2018-07-06T00:01:04.407Z,15.50
2018-07-06T00:02:04.389Z,13.80
2018-07-06T00:03:04.373Z,14.30
2018-07-06T00:04:04.355Z,14.50
2018-07-06T00:05:05.094Z,14.70
2018-07-06T00:06:04.320Z,14.90
2018-07-06T00:07:04.304Z,16.10
2018-07-06T00:08:04.287Z,13.90
2018-07-06T00:09:04.270Z,19.00
2018-07-06T00:10:04.251Z,15.70
2018-07-06T00:11:04.304Z,15.80
2018-07-06T00:12:04.219Z,15.40
2018-07-06T00:13:04.201Z,14.40
2018-07-06T00:14:04.184Z,13.80
2018-07-06T00:15:04.167Z,15.10
2018-07-06T00:16:04.153Z,15.00
2018-07-06T00:17:04.132Z,17.00
2018-07-06T00:18:04.117Z,18.40
2018-07-06T00:19:04.099Z,18.90
2018-07-06T00:20:04.082Z,18.70
2018-07-06T00:21:04.067Z,17.40
2018-07-06T00:22:04.046Z,17.60
2018-07-06T00:23:04.030Z,17.40
2018-07-06T00:24:04.013Z,17.70
2018-07-06T00:25:03.993Z,17.70
2018-07-06T00:26:04.727Z,18.40
2018-07-06T00:27:03.959Z,19.60
2018-07-06T00:28:03.943Z,18.00
2018-07-06T00:29:03.923Z,18.80
2018-07-06T00:30:03.907Z,19.80
2018-07-06T00:31:03.890Z,19.50
2018-07-06T00:32:03.873Z,18.60
2018-07-06T00:33:03.856Z,19.30
2018-07-06T00:34:03.837Z,21.80
2018-07-06T00:35:03.822Z,20.30
2018-07-06T00:36:03.804Z,20.40
2018-07-06T00:37:03.784Z,18.90
2018-07-06T00:38:03.767Z,19.10
2018-07-06T00:39:03.750Z,20.00
2018-07-06T00:40:03.734Z,20.70
2018-07-06T00:41:03.714Z,17.80
2018-07-06T00:42:03.697Z,18.80
2018-07-06T00:43:03.682Z,17.40
2018-07-06T00:44:03.664Z,18.30
2018-07-06T00:45:03.647Z,18.40
2018-07-06T00:46:03.628Z,21.00
2018-07-06T00:47:03.613Z,19.00
2018-07-06T00:48:03.599Z,18.20
2018-07-06T00:49:03.579Z,19.30
2018-07-06T00:50:03.560Z,18.30
2018-07-06T00:51:03.544Z,18.20
2018-07-06T00:52:03.524Z,19.10
2018-07-06T00:53:03.507Z,15.80
2018-07-06T00:54:03.489Z,15.60
2018-07-06T00:55:03.472Z,16.50
2018-07-06T00:56:03.455Z,15.80
2018-07-06T00:57:03.487Z,11.90
2018-07-06T00:58:04.172Z,11.80
2018-07-06T00:59:03.405Z,10.60
2018-07-06T01:00:03.387Z,12.20
2018-07-06T01:01:03.367Z,11.40
2018-07-06T01:02:03.352Z,11.60
2018-07-06T01:03:03.333Z,12.00
2018-07-06T01:04:03.318Z,12.50
2018-07-06T01:05:03.298Z,10.40
2018-07-06T01:06:03.282Z,9.80
2018-07-06T01:07:03.264Z,11.30
2018-07-06T01:08:03.247Z,10.30
2018-07-06T01:09:03.231Z,11.00
2018-07-06T01:10:03.242Z,10.00
2018-07-06T01:11:03.195Z,9.90
2018-07-06T01:12:03.178Z,10.70
2018-07-06T01:13:03.158Z,11.10
2018-07-06T01:14:03.145Z,10.20
2018-07-06T01:15:03.125Z,10.80
2018-07-06T01:16:03.107Z,9.20
2018-07-06T01:17:03.091Z,8.70
2018-07-06T01:18:03.073Z,8.80
2018-07-06T01:19:03.054Z,8.50
2018-07-06T01:20:03.038Z,8.00
2018-07-06T01:21:03.020Z,8.80
2018-07-06T01:22:03.002Z,8.80
2018-07-06T01:23:02.983Z,12.00
2018-07-06T01:24:05.269Z,7.40
2018-07-06T01:25:02.948Z,8.00
2018-07-06T01:26:02.937Z,9.10
2018-07-06T01:27:02.915Z,10.20
2018-07-06T01:28:02.897Z,8.60
2018-07-06T01:29:02.878Z,8.30
2018-07-06T01:30:02.860Z,9.30
2018-07-06T01:31:02.843Z,9.30
2018-07-06T01:32:02.826Z,8.30
2018-07-06T01:33:02.806Z,8.90
2018-07-06T01:34:02.790Z,9.90
2018-07-06T01:35:02.772Z,8.80
2018-07-06T01:36:02.754Z,9.40
2018-07-06T01:37:02.735Z,11.60
2018-07-06T01:38:02.720Z,11.70
2018-07-06T01:39:02.702Z,9.70
2018-07-06T01:40:02.689Z,7.90
2018-07-06T01:41:02.665Z,8.80
2018-07-06T01:42:02.648Z,8.90
2018-07-06T01:43:02.631Z,8.40
2018-07-06T01:44:02.614Z,7.60
2018-07-06T01:45:02.596Z,8.90
2018-07-06T01:46:02.578Z,10.50
2018-07-06T01:47:02.560Z,9.30
2018-07-06T01:48:02.542Z,9.10
2018-07-06T01:49:02.523Z,11.00
2018-07-06T01:50:02.507Z,10.00
2018-07-06T01:51:02.489Z,10.40
2018-07-06T01:52:02.477Z,9.30
2018-07-06T01:53:02.453Z,8.70
2018-07-06T01:54:02.436Z,11.30
2018-07-06T01:55:02.418Z,10.80
2018-07-06T01:56:02.401Z,11.80
2018-07-06T01:57:02.383Z,11.10
2018-07-06T01:58:02.368Z,10.90
2018-07-06T01:59:02.347Z,11.50
2018-07-06T02:00:02.332Z,11.30
2018-07-06T02:01:02.312Z,9.80
2018-07-06T02:02:02.294Z,9.50
2018-07-06T02:03:02.277Z,12.90
2018-07-06T02:04:02.258Z,10.60
2018-07-06T02:05:02.241Z,11.30
2018-07-06T02:06:02.223Z,10.70
2018-07-06T02:07:02.206Z,12.60
2018-07-06T02:08:02.189Z,11.40
2018-07-06T02:09:02.169Z,10.40
2018-07-06T02:10:02.151Z,11.00
2018-07-06T02:11:02.134Z,11.30
2018-07-06T02:12:02.117Z,10.60
2018-07-06T02:13:02.099Z,10.90
2018-07-06T02:14:02.081Z,13.90
2018-07-06T02:15:02.063Z,13.50
2018-07-06T02:16:02.048Z,12.60
2018-07-06T02:17:02.029Z,13.70
2018-07-06T02:18:02.012Z,13.40
2018-07-06T02:19:01.995Z,12.30
2018-07-06T02:20:01.975Z,13.00
2018-07-06T02:21:01.956Z,15.00
2018-07-06T02:22:01.939Z,14.80
2018-07-06T02:23:01.921Z,15.50
2018-07-06T02:24:01.905Z,14.20
2018-07-06T02:25:01.887Z,14.20
2018-07-06T02:26:01.869Z,14.60
2018-07-06T02:27:01.852Z,15.80
2018-07-06T02:28:01.833Z,13.00
2018-07-06T02:29:01.815Z,13.50
2018-07-06T02:30:01.799Z,17.60
2018-07-06T02:31:01.780Z,14.10
2018-07-06T02:32:01.764Z,15.90
2018-07-06T02:33:01.746Z,14.10
2018-07-06T02:34:01.735Z,12.90
2018-07-06T02:35:01.712Z,11.50
2018-07-06T02:36:01.692Z,12.10
2018-07-06T02:37:01.675Z,12.90
2018-07-06T02:38:01.659Z,11.70
2018-07-06T02:39:01.641Z,9.80
2018-07-06T02:40:01.623Z,10.20
2018-07-06T02:41:01.604Z,10.80
2018-07-06T02:42:01.587Z,12.00
2018-07-06T02:43:01.569Z,11.20
2018-07-06T02:44:01.551Z,10.30
2018-07-06T02:45:01.549Z,12.70
2018-07-06T02:46:01.516Z,10.70
2018-07-06T02:47:01.499Z,10.90
2018-07-06T02:48:01.480Z,12.80
2018-07-06T02:49:01.464Z,11.90
2018-07-06T02:50:01.449Z,10.60
2018-07-06T02:51:01.429Z,10.30
2018-07-06T02:52:01.411Z,9.80
2018-07-06T02:53:01.391Z,11.70
2018-07-06T02:54:01.377Z,12.70
2018-07-06T02:55:01.368Z,11.80
2018-07-06T02:56:01.342Z,9.70
2018-07-06T02:57:01.328Z,13.60
2018-07-06T02:58:01.303Z,12.30
2018-07-06T02:59:01.295Z,10.70
2018-07-06T03:00:01.274Z,10.50
2018-07-06T03:01:01.252Z,10.30
2018-07-06T03:02:01.233Z,12.30
2018-07-06T03:03:01.216Z,9.70
2018-07-06T03:04:01.199Z,11.70
2018-07-06T03:05:01.184Z,14.80
2018-07-06T03:06:01.162Z,11.70
2018-07-06T03:07:01.146Z,9.40
2018-07-06T03:08:01.128Z,10.20
2018-07-06T03:09:01.110Z,9.30
2018-07-06T03:10:01.092Z,11.10
2018-07-06T03:11:01.076Z,10.30
2018-07-06T03:12:01.058Z,11.30
2018-07-06T03:13:01.045Z,9.40
2018-07-06T03:14:01.022Z,11.10
2018-07-06T03:15:01.008Z,7.40
2018-07-06T03:16:00.988Z,8.80
2018-07-06T03:17:00.970Z,8.10
2018-07-06T03:18:00.955Z,9.40
2018-07-06T03:19:00.938Z,5.40
2018-07-06T03:20:00.924Z,6.70
2018-07-06T03:21:00.899Z,6.70
2018-07-06T03:22:00.880Z,7.20
2018-07-06T03:23:00.864Z,8.50
2018-07-06T03:24:00.847Z,7.80
2018-07-06T03:25:00.829Z,8.70
2018-07-06T03:26:00.810Z,5.30
2018-07-06T03:27:00.792Z,8.20
2018-07-06T03:28:00.831Z,4.20
2018-07-06T03:29:00.763Z,7.00
2018-07-06T03:30:00.743Z,5.80
2018-07-06T03:31:00.721Z,6.30
2018-07-06T03:32:00.705Z,7.00
2018-07-06T03:33:00.685Z,6.20
2018-07-06T03:34:00.667Z,5.90
2018-07-06T03:35:00.650Z,5.60
2018-07-06T03:36:00.632Z,6.40
2018-07-06T03:37:00.613Z,6.80
2018-07-06T03:38:00.598Z,5.00
2018-07-06T03:39:00.578Z,5.60
2018-07-06T03:40:00.560Z,9.10
2018-07-06T03:41:02.043Z,6.40
2018-07-06T03:42:00.525Z,6.00
2018-07-06T03:43:00.507Z,9.50
2018-07-06T03:44:00.490Z,6.90
2018-07-06T03:45:00.470Z,9.30
2018-07-06T03:46:00.453Z,6.00
2018-07-06T03:47:01.186Z,8.50
2018-07-06T03:48:00.445Z,5.60
2018-07-06T03:49:00.400Z,6.90
2018-07-06T03:50:00.381Z,7.60
2018-07-06T03:51:00.367Z,7.50
2018-07-06T03:52:00.347Z,5.70
2018-07-06T03:53:00.329Z,10.30
2018-07-06T03:54:00.310Z,6.90
2018-07-06T03:55:00.323Z,9.50
2018-07-06T03:56:00.276Z,12.50
2018-07-06T03:57:00.256Z,7.00
2018-07-06T03:58:00.240Z,9.90
2018-07-06T03:59:00.223Z,6.90
2018-07-06T04:00:00.204Z,6.90
2018-07-06T04:01:00.218Z,7.10
2018-07-06T04:02:00.170Z,6.40
2018-07-06T04:03:00.152Z,5.60
2018-07-06T04:04:00.134Z,7.00
2018-07-06T04:05:00.115Z,4.90
2018-07-06T04:06:00.097Z,8.40
2018-07-06T04:07:00.079Z,7.30
2018-07-06T04:08:00.062Z,5.60
2018-07-06T04:09:00.044Z,8.00
2018-07-06T04:10:00.031Z,4.90
2018-07-06T04:11:00.008Z,5.60
2018-07-06T04:11:59.989Z,4.00
2018-07-06T04:12:59.970Z,5.10
2018-07-06T04:13:59.953Z,4.00
2018-07-06T04:14:59.935Z,4.20
2018-07-06T04:15:59.933Z,5.50
2018-07-06T04:16:59.898Z,5.30
2018-07-06T04:17:59.880Z,5.10
2018-07-06T04:19:01.364Z,4.50
2018-07-06T04:19:59.846Z,5.60
2018-07-06T04:20:59.826Z,5.10
2018-07-06T04:21:59.807Z,5.80
2018-07-06T04:22:59.790Z,7.20
2018-07-06T04:23:59.775Z,6.10
2018-07-06T04:25:00.504Z,6.20
2018-07-06T04:25:59.735Z,4.90
2018-07-06T04:26:59.717Z,5.20
2018-07-06T04:27:59.699Z,4.80
2018-07-06T04:28:59.681Z,5.90
2018-07-06T04:29:59.663Z,4.00
2018-07-06T04:30:59.645Z,6.30
2018-07-06T04:31:59.627Z,3.50
2018-07-06T04:32:59.607Z,5.40
2018-07-06T04:33:59.590Z,4.30
2018-07-06T04:34:59.572Z,6.30
2018-07-06T04:35:59.555Z,6.50
2018-07-06T04:36:59.535Z,4.60
2018-07-06T04:37:59.518Z,5.90
2018-07-06T04:38:59.502Z,5.00
2018-07-06T04:39:59.481Z,5.00
2018-07-06T04:40:59.462Z,4.30
2018-07-06T04:41:59.444Z,3.10
2018-07-06T04:42:59.426Z,4.00
2018-07-06T04:43:59.409Z,5.30
2018-07-06T04:44:59.389Z,5.90
2018-07-06T04:45:59.372Z,3.90
2018-07-06T04:46:59.353Z,6.10
2018-07-06T04:47:59.336Z,6.00
2018-07-06T04:48:59.317Z,8.60
2018-07-06T04:49:59.298Z,5.30
2018-07-06T04:50:59.326Z,6.40
2018-07-06T04:51:59.262Z,5.70
2018-07-06T04:52:59.243Z,4.30
2018-07-06T04:53:59.228Z,5.20
2018-07-06T04:54:59.210Z,5.50
2018-07-06T04:55:59.189Z,6.60
2018-07-06T04:56:59.170Z,6.60
2018-07-06T04:57:59.151Z,6.10
2018-07-06T04:58:59.134Z,6.90
2018-07-06T04:59:59.180Z,4.40
2018-07-06T05:00:59.097Z,3.90
2018-07-06T05:01:59.080Z,7.10
2018-07-06T05:02:59.063Z,4.60
2018-07-06T05:03:59.045Z,5.50
2018-07-06T05:04:59.026Z,3.70
2018-07-06T05:05:59.007Z,4.80
2018-07-06T05:06:58.989Z,6.60
2018-07-06T05:07:58.972Z,5.10
2018-07-06T05:08:58.952Z,5.20
2018-07-06T05:09:58.935Z,5.70
2018-07-06T05:10:58.918Z,3.70
2018-07-06T05:11:58.899Z,5.70
2018-07-06T05:12:58.880Z,3.90
2018-07-06T05:13:58.862Z,4.30
2018-07-06T05:14:58.845Z,7.70
2018-07-06T05:15:58.827Z,5.50
2018-07-06T05:16:58.817Z,6.40
2018-07-06T05:17:58.792Z,5.30
2018-07-06T05:18:58.776Z,6.50
2018-07-06T05:19:58.757Z,7.20
2018-07-06T05:20:58.738Z,5.70
2018-07-06T05:21:58.721Z,6.40
2018-07-06T05:22:58.703Z,4.70
2018-07-06T05:23:58.686Z,5.70
2018-07-06T05:24:58.666Z,4.70
2018-07-06T05:25:58.650Z,5.60
2018-07-06T05:26:58.632Z,3.80
2018-07-06T05:27:58.615Z,4.80
2018-07-06T05:29:00.098Z,5.40
2018-07-06T05:29:58.579Z,6.80
2018-07-06T05:30:58.561Z,4.40
2018-07-06T05:31:58.548Z,3.90
2018-07-06T05:32:58.526Z,5.10
2018-07-06T05:33:58.509Z,5.90
2018-07-06T05:34:59.243Z,5.40
2018-07-06T05:35:58.475Z,7.20
2018-07-06T05:36:58.458Z,5.10
2018-07-06T05:37:58.440Z,6.30
2018-07-06T05:38:58.421Z,6.40
2018-07-06T05:39:58.404Z,4.70
2018-07-06T05:40:58.384Z,4.70
2018-07-06T05:41:58.368Z,4.60
2018-07-06T05:42:58.351Z,4.10
2018-07-06T05:43:58.333Z,4.60
2018-07-06T05:44:58.314Z,4.80
2018-07-06T05:45:59.052Z,4.20
2018-07-06T05:46:58.280Z,7.20
2018-07-06T05:47:58.338Z,7.90
2018-07-06T05:48:58.243Z,4.40
2018-07-06T05:49:58.226Z,4.30
2018-07-06T05:50:58.209Z,6.50
2018-07-06T05:51:58.194Z,4.60
2018-07-06T05:52:58.173Z,7.20
2018-07-06T05:53:58.155Z,5.30
2018-07-06T05:54:58.139Z,4.90
2018-07-06T05:55:58.121Z,6.10
2018-07-06T05:56:58.104Z,4.50
2018-07-06T05:57:58.086Z,5.40
2018-07-06T05:58:58.068Z,4.90
2018-07-06T05:59:58.051Z,7.10
2018-07-06T06:00:58.032Z,5.90
2018-07-06T06:01:58.015Z,4.90
2018-07-06T06:02:58.003Z,6.60
2018-07-06T06:03:57.982Z,8.20
2018-07-06T06:04:57.963Z,75.20
2018-07-06T06:05:57.945Z,120.50
2018-07-06T06:06:57.931Z,32.50
2018-07-06T06:07:57.911Z,25.60
2018-07-06T06:08:57.894Z,12.20
2018-07-06T06:09:57.875Z,7.50
2018-07-06T06:10:57.857Z,4.60
2018-07-06T06:11:57.840Z,4.20
2018-07-06T06:12:57.822Z,6.30
2018-07-06T06:13:57.804Z,5.10
2018-07-06T06:14:57.788Z,6.40
2018-07-06T06:15:57.770Z,4.40
2018-07-06T06:16:57.752Z,4.20
2018-07-06T06:17:57.735Z,8.20
2018-07-06T06:18:58.164Z,6.80
2018-07-06T06:19:57.701Z,5.10
2018-07-06T06:20:57.733Z,4.20
2018-07-06T06:21:57.664Z,6.50
2018-07-06T06:22:57.647Z,6.50
2018-07-06T06:23:57.630Z,6.10
2018-07-06T06:24:57.672Z,5.40
2018-07-06T06:25:57.593Z,5.90
2018-07-06T06:26:57.577Z,8.50
2018-07-06T06:27:57.558Z,4.90
2018-07-06T06:28:57.540Z,5.70
2018-07-06T06:29:57.523Z,6.50
2018-07-06T06:30:57.506Z,7.10
2018-07-06T06:31:57.488Z,5.60
2018-07-06T06:32:57.541Z,5.90
2018-07-06T06:33:57.529Z,6.40
2018-07-06T06:34:57.435Z,5.60
2018-07-06T06:35:57.416Z,5.00
2018-07-06T06:36:57.399Z,7.00
2018-07-06T06:38:00.387Z,3.30
2018-07-06T06:38:57.365Z,3.50
2018-07-06T06:39:57.348Z,5.00
2018-07-06T06:40:57.328Z,7.90
2018-07-06T06:41:57.312Z,4.80
2018-07-06T06:42:57.293Z,5.40
2018-07-06T06:43:57.276Z,4.10
2018-07-06T06:44:57.259Z,3.80
2018-07-06T06:45:57.243Z,3.30
2018-07-06T06:46:57.224Z,4.40
2018-07-06T06:47:57.207Z,4.00
2018-07-06T06:48:57.188Z,3.90
2018-07-06T06:49:57.176Z,5.40
2018-07-06T06:50:57.153Z,8.70
2018-07-06T06:51:57.136Z,5.00
2018-07-06T06:52:57.128Z,3.80
2018-07-06T06:53:57.100Z,3.70
2018-07-06T06:54:59.336Z,4.80
2018-07-06T06:55:57.066Z,3.50
2018-07-06T06:56:57.049Z,3.80
2018-07-06T06:57:57.031Z,5.40
2018-07-06T06:58:57.023Z,5.40
2018-07-06T06:59:57.000Z,4.80
2018-07-06T07:00:57.004Z,5.20
2018-07-06T07:01:56.964Z,5.00
2018-07-06T07:02:56.944Z,6.70
2018-07-06T07:03:56.930Z,3.50
2018-07-06T07:04:56.910Z,3.80
2018-07-06T07:05:56.894Z,4.20
2018-07-06T07:06:56.880Z,4.40
2018-07-06T07:07:56.861Z,4.60
2018-07-06T07:08:56.842Z,4.20
2018-07-06T07:09:56.825Z,4.50
2018-07-06T07:10:56.809Z,3.10
2018-07-06T07:11:56.793Z,3.70
2018-07-06T07:12:56.776Z,3.50
2018-07-06T07:13:56.954Z,4.60
2018-07-06T07:14:56.739Z,3.90
2018-07-06T07:15:56.723Z,5.50
2018-07-06T07:16:56.705Z,4.30
2018-07-06T07:17:56.688Z,3.60
2018-07-06T07:18:56.673Z,3.60
2018-07-06T07:19:56.655Z,5.00
2018-07-06T07:20:56.638Z,5.30
2018-07-06T07:21:56.626Z,5.80
2018-07-06T07:22:56.606Z,6.70
2018-07-06T07:23:56.588Z,4.30
2018-07-06T07:24:56.573Z,4.40
2018-07-06T07:25:56.554Z,4.30
2018-07-06T07:26:56.538Z,6.70
2018-07-06T07:27:56.521Z,5.60
2018-07-06T07:28:56.502Z,4.60
2018-07-06T07:29:56.486Z,4.50
2018-07-06T07:30:56.470Z,4.10
2018-07-06T07:31:56.453Z,4.10
2018-07-06T07:32:56.436Z,5.00
2018-07-06T07:33:56.417Z,4.90
2018-07-06T07:34:56.401Z,4.10
2018-07-06T07:35:56.385Z,5.70
2018-07-06T07:36:56.367Z,4.20
2018-07-06T07:37:56.352Z,5.70
2018-07-06T07:38:56.345Z,4.40
2018-07-06T07:39:56.318Z,8.00
2018-07-06T07:40:56.300Z,4.70
2018-07-06T07:41:56.283Z,7.30
2018-07-06T07:42:56.267Z,5.30
2018-07-06T07:43:56.249Z,5.00
2018-07-06T07:44:56.233Z,7.20
2018-07-06T07:45:56.215Z,4.10
2018-07-06T07:46:56.199Z,3.60
2018-07-06T07:47:56.182Z,4.70
2018-07-06T07:48:56.166Z,4.90
2018-07-06T07:49:56.148Z,4.80
2018-07-06T07:50:56.132Z,4.40
2018-07-06T07:51:56.115Z,5.10
2018-07-06T07:52:56.098Z,4.60
2018-07-06T07:53:56.082Z,3.70
2018-07-06T07:54:56.072Z,4.10
2018-07-06T07:55:56.047Z,4.10
2018-07-06T07:56:56.030Z,3.00
2018-07-06T07:57:56.014Z,4.20
2018-07-06T07:58:55.996Z,2.90
2018-07-06T07:59:55.980Z,4.80
2018-07-06T08:00:56.160Z,4.40
2018-07-06T08:01:55.946Z,5.60
2018-07-06T08:02:55.928Z,3.40
2018-07-06T08:03:55.911Z,3.60
2018-07-06T08:04:55.895Z,3.70
2018-07-06T08:05:55.877Z,3.20
2018-07-06T08:06:55.861Z,3.20
2018-07-06T08:07:55.846Z,4.20
2018-07-06T08:08:55.826Z,2.90
2018-07-06T08:09:55.811Z,3.80
2018-07-06T08:10:55.795Z,4.20
2018-07-06T08:11:55.855Z,5.00
2018-07-06T08:12:55.762Z,4.30
2018-07-06T08:13:55.743Z,4.40
2018-07-06T08:14:55.728Z,4.10
2018-07-06T08:15:55.710Z,2.90
2018-07-06T08:16:55.693Z,3.50
2018-07-06T08:17:55.676Z,2.50
2018-07-06T08:18:55.659Z,2.90
2018-07-06T08:19:55.644Z,3.60
2018-07-06T08:20:55.626Z,4.50
2018-07-06T08:21:55.610Z,3.00
2018-07-06T08:22:55.594Z,3.10
2018-07-06T08:23:55.577Z,3.40
2018-07-06T08:24:55.560Z,4.60
2018-07-06T08:25:55.542Z,2.50
2018-07-06T08:26:55.527Z,3.00
2018-07-06T08:27:55.510Z,2.70
2018-07-06T08:28:55.492Z,3.40
2018-07-06T08:29:55.475Z,3.00
2018-07-06T08:30:55.460Z,2.90
2018-07-06T08:31:55.443Z,2.90
2018-07-06T08:32:55.426Z,2.90
2018-07-06T08:33:55.412Z,3.60
2018-07-06T08:34:55.392Z,3.60
2018-07-06T08:35:56.127Z,2.70
2018-07-06T08:36:55.358Z,2.90
2018-07-06T08:37:55.342Z,3.90
2018-07-06T08:38:55.326Z,3.50
2018-07-06T08:39:55.354Z,3.40
2018-07-06T08:40:55.292Z,3.90
2018-07-06T08:41:55.276Z,3.00
2018-07-06T08:42:55.258Z,2.60
2018-07-06T08:43:55.243Z,2.50
2018-07-06T08:44:55.263Z,3.70
2018-07-06T08:45:55.208Z,3.40
2018-07-06T08:46:55.191Z,2.70
2018-07-06T08:47:55.176Z,2.60
2018-07-06T08:48:55.158Z,2.60
2018-07-06T08:49:55.141Z,3.70
2018-07-06T08:50:55.124Z,4.50
2018-07-06T08:51:55.112Z,4.90
2018-07-06T08:52:55.089Z,4.00
2018-07-06T08:53:55.075Z,3.00
2018-07-06T08:54:55.057Z,3.50
2018-07-06T08:55:55.039Z,3.30
2018-07-06T08:56:55.022Z,5.10
2018-07-06T08:57:55.006Z,3.30
2018-07-06T08:58:54.988Z,3.40
2018-07-06T08:59:54.971Z,4.80
2018-07-06T09:00:54.955Z,4.90
2018-07-06T09:01:54.938Z,5.00
2018-07-06T09:02:54.920Z,3.70
2018-07-06T09:03:54.904Z,2.60
2018-07-06T09:04:54.886Z,4.70
2018-07-06T09:05:54.869Z,4.30
2018-07-06T09:06:54.855Z,5.00
2018-07-06T09:07:54.836Z,3.20
2018-07-06T09:08:54.823Z,6.90
2018-07-06T09:09:54.802Z,7.40
2018-07-06T09:10:54.790Z,3.90
2018-07-06T09:11:54.772Z,6.90
2018-07-06T09:12:55.517Z,6.40
2018-07-06T09:13:54.732Z,4.80
2018-07-06T09:14:54.717Z,5.80
2018-07-06T09:15:54.700Z,4.50
2018-07-06T09:16:54.685Z,4.00
2018-07-06T09:17:54.680Z,4.50
2018-07-06T09:18:54.652Z,3.40
2018-07-06T09:19:54.813Z,4.70
2018-07-06T09:20:54.614Z,4.10
2018-07-06T09:21:54.598Z,3.80
2018-07-06T09:22:54.583Z,4.00
2018-07-06T09:23:54.566Z,4.90
2018-07-06T09:24:54.549Z,7.30
2018-07-06T09:25:54.661Z,3.90
2018-07-06T09:26:54.517Z,3.70
2018-07-06T09:27:54.519Z,4.90
2018-07-06T09:28:54.484Z,4.20
2018-07-06T09:29:54.467Z,4.00
2018-07-06T09:30:54.451Z,3.90
2018-07-06T09:31:54.434Z,3.30
2018-07-06T09:32:54.421Z,3.20
2018-07-06T09:33:54.403Z,3.40
2018-07-06T09:34:54.387Z,4.80
2018-07-06T09:35:54.413Z,3.70
2018-07-06T09:36:54.353Z,5.40
2018-07-06T09:37:54.338Z,5.10
2018-07-06T09:38:54.322Z,3.50
2018-07-06T09:39:54.307Z,4.40
2018-07-06T09:40:54.290Z,4.20
2018-07-06T09:41:54.276Z,5.40
2018-07-06T09:42:54.263Z,5.50
2018-07-06T09:43:54.245Z,5.00
2018-07-06T09:44:54.231Z,3.10
2018-07-06T09:45:54.218Z,4.50
2018-07-06T09:46:54.199Z,6.50
2018-07-06T09:47:54.182Z,4.50
2018-07-06T09:48:54.165Z,4.20
2018-07-06T09:49:54.159Z,6.40
2018-07-06T09:50:54.140Z,4.50
2018-07-06T09:51:54.120Z,3.40
2018-07-06T09:52:54.103Z,4.60
2018-07-06T09:53:54.087Z,3.80
2018-07-06T09:54:54.073Z,6.50
2018-07-06T09:55:54.057Z,4.40
2018-07-06T09:56:54.044Z,5.10
2018-07-06T09:57:54.069Z,7.00
2018-07-06T09:58:54.008Z,3.70
2018-07-06T09:59:53.998Z,4.40
2018-07-06T10:00:53.975Z,5.10
2018-07-06T10:01:53.959Z,5.10
2018-07-06T10:02:53.945Z,3.80
2018-07-06T10:03:53.929Z,3.80
2018-07-06T10:04:53.939Z,3.30
2018-07-06T10:05:53.895Z,4.70
2018-07-06T10:06:53.882Z,3.30
2018-07-06T10:07:53.867Z,3.10
2018-07-06T10:08:53.846Z,3.80
2018-07-06T10:09:53.863Z,5.20
2018-07-06T10:10:53.823Z,3.90
2018-07-06T10:11:53.802Z,5.50
2018-07-06T10:12:53.779Z,3.60
2018-07-06T10:13:53.764Z,3.50
2018-07-06T10:14:53.746Z,4.20
2018-07-06T10:15:53.738Z,4.80
2018-07-06T10:16:55.215Z,3.70
2018-07-06T10:17:53.697Z,3.80
2018-07-06T10:18:53.682Z,2.70
2018-07-06T10:19:53.788Z,3.90
2018-07-06T10:20:53.648Z,4.30
2018-07-06T10:21:53.662Z,3.30
2018-07-06T10:22:53.621Z,3.50
2018-07-06T10:23:53.603Z,2.90
2018-07-06T10:24:53.585Z,3.00
2018-07-06T10:25:53.571Z,2.90
2018-07-06T10:26:53.554Z,3.70
2018-07-06T10:27:53.538Z,3.70
2018-07-06T10:28:53.523Z,3.70
2018-07-06T10:29:53.508Z,3.00
2018-07-06T10:30:53.492Z,3.40
2018-07-06T10:31:53.476Z,3.80
2018-07-06T10:32:53.461Z,2.90
2018-07-06T10:33:53.491Z,3.20
2018-07-06T10:34:53.432Z,4.60
2018-07-06T10:35:53.414Z,3.60
2018-07-06T10:36:53.397Z,3.20
2018-07-06T10:37:53.382Z,3.60
2018-07-06T10:38:53.368Z,4.50
2018-07-06T10:39:53.505Z,2.90
2018-07-06T10:40:53.335Z,3.00
2018-07-06T10:41:53.322Z,2.60
2018-07-06T10:42:53.305Z,3.70
2018-07-06T10:43:53.290Z,3.00
2018-07-06T10:44:54.776Z,3.50
2018-07-06T10:45:53.260Z,3.10
2018-07-06T10:46:53.247Z,3.00
2018-07-06T10:47:53.231Z,3.20
2018-07-06T10:48:53.214Z,3.40
2018-07-06T10:49:53.199Z,3.70
2018-07-06T10:50:53.186Z,3.00
2018-07-06T10:51:53.174Z,4.30
2018-07-06T10:52:53.153Z,3.40
2018-07-06T10:53:53.139Z,3.90
2018-07-06T10:54:53.126Z,3.30
2018-07-06T10:55:53.110Z,4.50
2018-07-06T10:56:53.095Z,3.30
2018-07-06T10:57:53.081Z,3.10
2018-07-06T10:58:53.065Z,3.90
2018-07-06T10:59:53.052Z,3.60
2018-07-06T11:00:53.037Z,3.20
2018-07-06T11:01:53.025Z,4.10
2018-07-06T11:02:53.008Z,3.10
2018-07-06T11:03:52.994Z,3.90
2018-07-06T11:04:53.013Z,4.50
2018-07-06T11:05:52.967Z,3.50
2018-07-06T11:06:52.958Z,3.70
2018-07-06T11:07:52.942Z,3.70
2018-07-06T11:08:52.938Z,3.20
2018-07-06T11:09:52.912Z,3.40
2018-07-06T11:10:52.898Z,3.40
2018-07-06T11:11:52.888Z,3.70
2018-07-06T11:12:52.872Z,4.30
2018-07-06T11:13:52.859Z,3.60
2018-07-06T11:14:52.845Z,3.60
2018-07-06T11:15:52.832Z,3.70
2018-07-06T11:16:53.571Z,3.60
2018-07-06T11:17:52.809Z,3.90
2018-07-06T11:18:52.792Z,3.60
2018-07-06T11:19:52.781Z,3.80
2018-07-06T11:20:52.767Z,3.70
2018-07-06T11:21:52.754Z,3.90
2018-07-06T11:22:52.742Z,4.10
2018-07-06T11:23:52.728Z,3.60
2018-07-06T11:24:52.713Z,5.00
2018-07-06T11:25:52.700Z,4.30
2018-07-06T11:26:52.687Z,3.70
2018-07-06T11:27:52.674Z,5.20
2018-07-06T11:28:52.659Z,4.10
2018-07-06T11:29:52.646Z,5.20
2018-07-06T11:30:52.634Z,6.70
2018-07-06T11:31:52.622Z,3.80
2018-07-06T11:32:52.610Z,4.20
2018-07-06T11:33:52.593Z,4.50
2018-07-06T11:34:52.579Z,4.70
2018-07-06T11:35:52.566Z,4.20
2018-07-06T11:36:52.551Z,4.40
2018-07-06T11:37:54.123Z,4.50
2018-07-06T11:38:52.524Z,4.10
2018-07-06T11:39:52.513Z,5.30
2018-07-06T11:40:52.496Z,4.60
2018-07-06T11:41:52.482Z,5.20
2018-07-06T11:42:52.469Z,4.50
2018-07-06T11:43:52.455Z,6.90
2018-07-06T11:44:52.489Z,5.50
2018-07-06T11:45:52.427Z,5.20
2018-07-06T11:46:52.413Z,6.70
2018-07-06T11:47:52.400Z,4.60
2018-07-06T11:48:52.385Z,4.40
2018-07-06T11:49:52.371Z,4.60
2018-07-06T11:50:52.359Z,4.60
2018-07-06T11:51:52.345Z,6.00
2018-07-06T11:52:52.333Z,4.00
2018-07-06T11:53:52.316Z,4.40
2018-07-06T11:54:52.303Z,6.60
2018-07-06T11:55:52.290Z,4.10
2018-07-06T11:56:52.275Z,6.10
2018-07-06T11:57:52.261Z,5.20
2018-07-06T11:58:52.255Z,12.70
2018-07-06T11:59:52.235Z,9.00
2018-07-06T12:00:52.220Z,12.70
2018-07-06T12:01:52.226Z,7.40
2018-07-06T12:02:52.193Z,9.80
2018-07-06T12:03:52.181Z,8.30
2018-07-06T12:04:52.165Z,7.50
2018-07-06T12:05:52.158Z,8.90
2018-07-06T12:06:52.137Z,6.50
2018-07-06T12:07:52.125Z,7.30
2018-07-06T12:08:52.111Z,5.60
2018-07-06T12:09:52.096Z,5.00
2018-07-06T12:10:52.835Z,4.40
2018-07-06T12:11:52.070Z,5.10
2018-07-06T12:12:52.055Z,6.10
2018-07-06T12:13:52.043Z,6.70
2018-07-06T12:14:52.030Z,5.30
2018-07-06T12:15:52.017Z,4.70
2018-07-06T12:16:52.001Z,6.80
2018-07-06T12:17:51.989Z,5.80
2018-07-06T12:18:51.977Z,5.70
2018-07-06T12:19:51.964Z,8.60
2018-07-06T12:20:52.027Z,7.50
2018-07-06T12:21:51.934Z,8.30
2018-07-06T12:22:51.921Z,5.70
2018-07-06T12:23:51.910Z,6.80
2018-07-06T12:24:51.893Z,7.00
2018-07-06T12:25:51.879Z,7.00
2018-07-06T12:26:51.866Z,7.00
2018-07-06T12:27:51.884Z,6.90
2018-07-06T12:28:51.837Z,7.40
2018-07-06T12:29:51.824Z,6.70
2018-07-06T12:30:51.811Z,7.90
2018-07-06T12:31:51.799Z,7.60
2018-07-06T12:32:51.782Z,7.10
2018-07-06T12:33:51.767Z,8.60
2018-07-06T12:34:51.756Z,8.60
2018-07-06T12:35:51.739Z,18.80
2018-07-06T12:36:51.725Z,8.80
2018-07-06T12:37:51.710Z,7.40
2018-07-06T12:38:51.697Z,8.90
2018-07-06T12:39:51.682Z,9.90
2018-07-06T12:40:51.666Z,12.80
2018-07-06T12:41:51.654Z,10.60
2018-07-06T12:42:51.638Z,14.60
2018-07-06T12:43:51.626Z,10.40
2018-07-06T12:44:51.611Z,20.90
2018-07-06T12:45:51.593Z,20.30
2018-07-06T12:46:51.580Z,15.60
2018-07-06T12:47:51.564Z,13.50
2018-07-06T12:48:51.587Z,24.20
2018-07-06T12:49:51.533Z,11.60
2018-07-06T12:50:51.518Z,14.30
2018-07-06T12:51:51.504Z,10.30
2018-07-06T12:52:51.488Z,11.70
2018-07-06T12:53:51.474Z,10.00
2018-07-06T12:54:51.458Z,10.10
2018-07-06T12:55:51.444Z,8.60
2018-07-06T12:56:51.426Z,8.20
2018-07-06T12:57:51.411Z,8.40
2018-07-06T12:58:51.416Z,10.90
2018-07-06T12:59:51.381Z,9.00
2018-07-06T13:00:51.362Z,9.40
2018-07-06T13:01:51.347Z,9.60
2018-07-06T13:02:51.330Z,9.90
2018-07-06T13:03:51.314Z,15.00
2018-07-06T13:04:51.299Z,9.00
2018-07-06T13:05:51.282Z,10.30
2018-07-06T13:06:51.266Z,10.50
2018-07-06T13:07:51.253Z,10.30
2018-07-06T13:08:51.232Z,9.70
2018-07-06T13:09:51.217Z,11.80
2018-07-06T13:10:51.203Z,12.40
2018-07-06T13:11:51.184Z,10.90